• Join FlightAware (Why Join?)
  • Login
  • US Flag GB Flag 
09:11 EDT


 

Airport Tracker/Info


-or-


 

Live Flight TrackerFlight Track Log ✈ SWA1910 ✈ 12-Apr-2013 ✈ KBWI - KRSW

Flight Track Log - Related Links

Times and Time Zones

All times are in EDT time to prevent confusion due to time zone crossing. See the SWA1910 flight status page for this flight to view local times or setup timezone preferences in your user account.

Time Position Orientation Groundspeed Altitude Reporting Facility
EDT Latitude Longitude Course Direction KTS MPH feet Rate Location/Type
19:55 39.1167 -76.6333 151° Southeast 194 223 2,700  Level Potomac TRACON
19:56 39.0667 -76.5833 142° Southeast 219 252 5,300 2,220 Climbing Potomac TRACON
19:57 39.0167 -76.5000 128° Southeast 285 328 7,400 2,460 Climbing Potomac TRACON
19:58 38.9500 -76.5000 180° South 282 325 10,300 2,580 Climbing Potomac TRACON
20:00 38.7050 -76.8890 189° South  Level Estimated
20:00 38.8447 -76.5592 204° Southwest 275 316 14,000  Level Washington Center
20:01 38.7631 -76.6061 204° Southwest 300 345 14,700 2,400 Climbing Washington Center
20:02 38.6878 -76.6528 206° Southwest 307 353 18,800 2,100 Climbing Washington Center
20:03 38.6061 -76.6994 204° Southwest 313 360 19,000 1,800 Climbing Washington Center
20:04 38.5161 -76.7219 191° South 324 373 22,400 2,700 Climbing Washington Center
20:05 38.4183 -76.7072 173° South 335 386 24,400 2,280 Climbing Washington Center
20:06 38.3222 -76.7164 184° South 347 399 27,000 2,280 Climbing Washington Center
20:07 38.2242 -76.7361 189° South 352 405 29,000 1,860 Climbing Washington Center
20:08 38.1278 -76.7664 194° South 352 405 30,800 1,980 Climbing Washington Center
20:09 38.0336 -76.7939 193° South 352 405 33,000 1,560 Climbing Washington Center
20:10 37.9353 -76.8267 195° South 357 411 34,000 480 Climbing Washington Center
20:11 37.8350 -76.8592 194° South 362 417 34,000 600 Level Washington Center
20:12 37.7303 -76.8861 192° South 368 423 35,300 1,200 Climbing Washington Center
20:13 37.6175 -76.9081 189° South 382 440 36,500 840 Climbing Washington Center
20:14 37.5281 -76.8958 174° South 387 445 37,000 660 Climbing Washington Center
20:15 37.3861 -76.8908 178° South 413 475 37,900 480 Climbing Washington Center
20:16 37.2794 -76.9256 195° South 413 475 38,000  Climbing Washington Center
20:17 37.1789 -76.9553 193° South 407 468 38,000  Level Washington Center
20:18 37.0742 -76.9922 196° South 402 463 38,000  Level Washington Center
20:19 36.9694 -77.0269 195° South 397 457 38,000  Level Washington Center
20:20 36.8628 -77.0614 194° South 397 457 38,000  Level Washington Center
20:21 36.7558 -77.0956 194° South 397 457 38,000  Level Washington Center
20:22 36.6553 -77.1297 195° South 397 457 38,000  Level Washington Center
20:23 36.5547 -77.1642 195° South 386 444 38,000  Level Washington Center
20:24 36.4519 -77.1981 195° South 381 438 38,000  Level Washington Center
20:25 36.3494 -77.2294 194° South 381 438 38,000  Level Washington Center
20:26 36.2467 -77.2636 195° South 381 438 38,000  Level Washington Center
20:27 36.1503 -77.2950 195° South 375 432 38,000  Level Washington Center
20:28 36.0475 -77.3236 193° South 375 432 38,000  Level Washington Center
20:30 35.8422 -77.3881 194° South 380 437 38,000  Level Washington Center
20:31 35.7394 -77.4217 195° South 380 437 38,000  Level Washington Center
20:32 35.6408 -77.4528 194° South 375 432 38,000  Level Washington Center
20:33 35.5422 -77.4836 194° South 375 432 38,000 -60 Level Washington Center
20:34 35.4436 -77.5144 194° South 375 432 37,900  Descending Washington Center
20:35 35.3431 -77.5425 193° South 375 432 38,000  Climbing Washington Center
20:36 35.2467 -77.5758 196° South 375 432 37,900  Descending Washington Center
20:37 35.1439 -77.6064 194° South 375 432 38,000  Climbing Washington Center
20:38 35.0475 -77.6369 195° South 375 432 38,000  Level Washington Center
20:39 34.9467 -77.6697 195° South 375 432 38,000  Level Washington Center
20:40 34.8561 -77.7131 201° Southwest 370 426 38,000 -60 Level Washington Center
20:41 34.7675 -77.7764 210° Southwest 351 404 37,900 -60 Descending Washington Center
20:42 34.6828 -77.8322 208° Southwest 346 398 37,900  Level Washington Center
20:43 34.6006 -77.8906 210° Southwest 346 398 37,900  Level Washington Center
20:44 34.5181 -77.9489 210° Southwest 351 404 37,900  Level Washington Center
20:45 34.4333 -78.0067 209° Southwest 351 404 37,900  Level Washington Center
20:46 34.3508 -78.0672 211° Southwest 351 404 37,900  Level Washington Center
20:47 34.2658 -78.1300 211° Southwest 351 404 37,900  Level Washington Center
20:47 34.2192 -78.1642 211° Southwest 338 389 37,900  Level Jacksonville Center
20:48 34.1361 -78.2264 212° Southwest 338 389 37,900  Level Jacksonville Center
20:49 34.0528 -78.2908 213° Southwest 344 396 37,900  Level Jacksonville Center
20:50 33.9697 -78.3578 214° Southwest 356 410 37,900  Level Jacksonville Center
20:51 33.8844 -78.4247 213° Southwest 356 410 37,900  Level Jacksonville Center
20:52 33.7969 -78.4842 209° Southwest 356 410 37,900  Level Jacksonville Center
20:53 33.7028 -78.5339 204° Southwest 363 418 37,900  Level Jacksonville Center
20:54 33.6064 -78.5811 202° Southwest 368 423 37,900  Level Jacksonville Center
20:55 33.5075 -78.6183 197° South 378 435 37,900  Level Jacksonville Center
20:56 33.4064 -78.6578 198° South 378 435 37,900  Level Jacksonville Center
20:57 33.3075 -78.6950 197° South 378 435 37,900  Level Jacksonville Center
20:58 33.2039 -78.7197 191° South 378 435 37,900  Level Jacksonville Center
20:59 33.0983 -78.7419 190° South 378 435 37,900  Level Jacksonville Center
21:00 32.9925 -78.7642 190° South 383 441 37,900  Level Jacksonville Center
21:01 32.8889 -78.7839 189° South 388 447 37,900  Level Jacksonville Center
21:02 32.7853 -78.8058 190° South 388 447 37,900  Level Jacksonville Center
21:03 32.6794 -78.8303 191° South 388 447 37,900  Level Jacksonville Center
21:04 32.5717 -78.8525 190° South 388 447 37,900  Level Jacksonville Center
21:05 32.4619 -78.8769 191° South 393 452 37,900  Level Jacksonville Center
21:06 32.3561 -78.9014 191° South 393 452 37,900  Level Jacksonville Center
21:07 32.2483 -78.9231 190° South 393 452 37,900  Level Jacksonville Center
21:08 32.1425 -78.9450 190° South 393 452 37,900  Level Jacksonville Center
21:09 32.0347 -78.9692 191° South 393 452 37,900  Level Jacksonville Center
21:10 31.9250 -78.9933 191° South 393 452 37,900  Level Jacksonville Center
21:11 31.8192 -79.0125 189° South 393 452 37,900  Level Jacksonville Center
21:12 31.7111 -79.0367 191° South 393 452 37,900  Level Jacksonville Center
21:13 31.5992 -79.0608 190° South 398 458 37,900  Level Jacksonville Center
21:14 31.4914 -79.0822 190° South 398 458 37,900  Level Jacksonville Center
21:15 31.3814 -79.1061 191° South 398 458 37,900  Level Jacksonville Center
21:16 31.2736 -79.1275 190° South 398 458 37,900  Level Jacksonville Center
21:17 31.1633 -79.1467 188° South 403 464 37,900  Level Jacksonville Center
21:18 31.0514 -79.1753 192° South 411 473 37,900  Level Jacksonville Center
21:19 30.9247 -79.1972 188° South 419 482 37,900  Level Jacksonville Center
21:21 30.7544 -79.2344 191° South 397 457 37,900  Level Miami Center
21:22 30.6353 -79.2558 189° South 397 457 37,900  Level Miami Center
21:23 30.5267 -79.2800 191° South 397 457 37,900  Level Miami Center
21:24 30.4175 -79.3206 198° South 403 464 37,900  Level Miami Center
21:25 30.3206 -79.3736 205° Southwest 397 457 37,900  Level Miami Center
21:26 30.2258 -79.4267 206° Southwest 392 451 37,900  Level Miami Center
21:27 30.1228 -79.4769 203° Southwest 392 451 37,900  Level Miami Center
21:28 30.0197 -79.5294 204° Southwest 400 460 37,900  Level Miami Center
21:29 29.9186 -79.5822 204° Southwest 400 460 37,900  Level Miami Center
21:30 29.8217 -79.6322 204° Southwest 405 466 37,900  Level Miami Center
21:31 29.7289 -79.6847 206° Southwest 400 460 38,000  Climbing Miami Center
21:32 29.6281 -79.7322 202° Southwest 406 467 38,000  Level Miami Center
21:33 29.5267 -79.7869 205° Southwest 401 461 38,000  Level Miami Center
21:34 29.4256 -79.8389 204° Southwest 401 461 38,000  Level Miami Center
21:35 29.3244 -79.8908 204° Southwest 401 461 38,000  Level Miami Center
21:36 29.2231 -79.9428 204° Southwest 401 461 38,000 -240 Level Miami Center
21:37 29.1200 -79.9922 203° Southwest 401 461 37,600 -1,500 Descending Miami Center
21:38 29.0206 -80.0439 204° Southwest 401 461 35,000 -2,400 Descending Miami Center
21:39 28.9153 -80.0953 203° Southwest 401 461 32,900 -2,100 Descending Miami Center
21:40 28.8139 -80.1469 204° Southwest 401 461 30,800 -2,100 Descending Miami Center
21:41 28.7106 -80.1983 204° Southwest 401 461 28,700 -2,340 Descending Miami Center
21:42 28.6028 -80.2517 203° Southwest 395 455 26,200 -2,280 Descending Miami Center
21:43 28.5056 -80.3031 205° Southwest 390 449 24,200 -1,500 Descending Miami Center
21:44 28.4617 -80.3939 241° Southwest 371 427 23,200 -1,020 Descending Miami Center
21:45 28.4194 -80.4942 244° Southwest 363 418 22,200 -1,080 Descending Miami Center
21:46 28.3442 -80.5836 226° Southwest 368 423 21,100 -1,080 Descending Miami Center
21:47 28.2614 -80.6375 210° Southwest 356 410 20,100 -1,020 Descending Miami Center
21:48 28.1786 -80.6911 210° Southwest 351 404 19,100 -1,020 Descending Miami Center
21:49 28.0997 -80.7472 212° Southwest 345 397 18,100 -960 Descending Miami Center
21:50 28.0275 -80.7967 211° Southwest 340 391 17,200 -900 Descending Miami Center
21:51 27.9511 -80.8481 211° Southwest 340 391 16,400 -540 Descending Miami Center
21:52 27.8722 -80.9017 211° Southwest 340 391 16,200 -240 Descending Miami Center
21:53 27.7872 -80.9594 211° Southwest 335 386 16,000 -120 Descending Miami Center
21:54 27.7083 -81.0106 210° Southwest 335 386 16,000  Level Miami Center
21:55 27.6339 -81.0642 213° Southwest 325 374 16,000  Level Miami Center
21:56 27.5614 -81.1131 211° Southwest 325 374 16,000  Level Miami Center
21:57 27.4783 -81.1686 211° Southwest 325 374 16,000  Level Miami Center
21:58 27.3994 -81.2217 211° Southwest 325 374 16,000  Level Miami Center
21:59 27.3228 -81.2725 211° Southwest 325 374 16,000 -540 Level Miami Center
22:00 27.2547 -81.3189 211° Southwest 325 374 15,000 -1,380 Descending Miami Center
22:01 27.1800 -81.3675 210° Southwest 325 374 13,400 -1,620 Descending Miami Center
22:02 27.1053 -81.4206 212° Southwest 325 374 11,900 -1,620 Descending Miami Center
22:03 27.0328 -81.4689 211° Southwest 325 374 10,200 -960 Descending Miami Center
22:04 26.9633 -81.4919 196° South 288 331 10,000 -120 Descending Miami Center
22:05 26.8894 -81.5122 194° South 277 319 10,000  Level Miami Center
22:06 26.8097 -81.5300 191° South 277 319 10,000 -840 Level Miami Center
22:07 26.7400 -81.5481 193° South 265 305 8,300 -1,920 Descending Miami Center
22:08 26.6867 -81.5878 214° Southwest 248 285 6,300 -2,100 Descending Miami Center
22:10 26.5599 -81.7288 225° Southwest  Level Estimated
22:17 26.5362 -81.7552 225° Southwest  Level Estimated
22:18 26.5362 -81.7552 138° Southeast  Level Estimated
22:19 26.5362 -81.7552 138° Southeast  Level Estimated
22:20 26.5362 -81.7552 138° Southeast  Level Estimated
22:21 26.5362 -81.7552 138° Southeast  Level Estimated
22:22 26.5362 -81.7552 138° Southeast  Level Estimated